• Join FlightAware (Why Join?)
  • Login
  • US Flag 
11:18PM EST


 

Airport Tracker/Info


-or-


 

Live Flight TrackerFlight Track Log ✈ N549PA ✈ 24-Feb-2014 ✈ KTEB - KVPC

Flight Track Log - Related Links

Times and Time Zones

All times are in EST time to prevent confusion due to time zone crossing. See the N549PA flight status page for this flight to view local times or setup timezone preferences in your user account.

Time Position Orientation Groundspeed Altitude Reporting Facility
EST Latitude Longitude Course Direction KTS MPH feet Rate Location/Type
08:00PM 40.8333 -74.1000 237° Southwest 183 211 1,000  Level New York TRACON
08:01PM 40.8000 -74.1667 237° Southwest 207 238 2,400 3,180 Climbing New York TRACON
08:03PM 40.8133 -74.2942 278° West 233 268 9,100 3,660 Climbing New York Center
08:04PM 40.7922 -74.3728 250° West 244 281 11,700 4,200 Climbing New York Center
08:05PM 40.7539 -74.4639 241° Southwest 269 310 17,500 5,700 Climbing New York Center
08:06PM 40.7203 -74.5386 239° Southwest 259 298 23,100 3,900 Climbing New York Center
08:07PM 40.6828 -74.6022 232° Southwest 239 275 25,300 1,620 Climbing New York Center
08:08PM 40.6489 -74.6825 241° Southwest 233 268 26,400 1,500 Climbing New York Center
08:09PM 40.6083 -74.7731 239° Southwest 260 299 28,400 1,920 Climbing New York Center
08:10PM 40.5653 -74.8717 240° Southwest 290 334 30,300 2,040 Climbing New York Center
08:11PM 40.5200 -74.9753 240° Southwest 301 346 32,500 2,040 Climbing New York Center
08:12PM 40.4792 -75.0656 239° Southwest 300 345 34,400 1,500 Climbing New York Center
08:13PM 40.4361 -75.1611 239° Southwest 300 345 35,500 960 Climbing New York Center
08:14PM 40.3911 -75.2536 237° Southwest 300 345 36,400 1,200 Climbing New York Center
08:15PM 40.3461 -75.3406 236° Southwest 300 345 37,900 780 Climbing New York Center
08:16PM 40.2886 -75.4211 227° Southwest 307 353 38,000  Climbing New York Center
08:17PM 40.2269 -75.5067 227° Southwest 314 361 38,000  Level New York Center
08:18PM 40.1669 -75.5950 228° Southwest 326 375 38,000  Level New York Center
08:19PM 40.1047 -75.6911 230° Southwest 337 388 38,000  Level New York Center
08:20PM 40.0528 -75.7878 235° Southwest 342 394 38,000  Level New York Center
08:21PM 39.9944 -75.8839 232° Southwest 342 394 38,000  Level New York Center
08:23PM 39.8689 -76.0997 233° Southwest 348 400 38,000  Level Washington Center
08:24PM 39.8122 -76.1939 232° Southwest 348 400 38,000  Level Washington Center
08:25PM 39.7492 -76.2958 231° Southwest 348 400 38,000  Level Washington Center
08:26PM 39.6861 -76.3922 230° Southwest 348 400 38,000  Level Washington Center
08:27PM 39.6292 -76.4886 233° Southwest 348 400 38,000  Level Washington Center
08:28PM 39.5678 -76.5822 230° Southwest 348 400 38,000  Level Washington Center
08:29PM 39.5086 -76.6808 232° Southwest 348 400 38,000  Level Washington Center
08:30PM 39.4517 -76.7767 232° Southwest 348 400 38,000  Level Washington Center
08:31PM 39.3964 -76.8725 233° Southwest 348 400 38,000  Level Washington Center
08:32PM 39.3392 -76.9656 232° Southwest 348 400 38,000  Level Washington Center
08:33PM 39.2817 -77.0583 231° Southwest 343 395 38,000  Level Washington Center
08:34PM 39.2242 -77.1536 232° Southwest 343 395 38,000  Level Washington Center
08:35PM 39.1647 -77.2486 231° Southwest 343 395 38,000  Level Washington Center
08:36PM 39.1050 -77.3436 231° Southwest 343 395 38,000  Level Washington Center
08:37PM 39.0389 -77.4356 227° Southwest 348 400 38,000  Level Washington Center
08:38PM 38.9750 -77.5275 228° Southwest 354 407 38,000  Level Washington Center
08:39PM 38.9067 -77.6244 228° Southwest 360 414 38,000  Level Washington Center
08:40PM 38.8469 -77.7081 227° Southwest 360 414 38,000  Level Washington Center
08:41PM 38.7825 -77.8019 229° Southwest 360 414 38,000  Level Washington Center
08:42PM 38.7161 -77.9011 229° Southwest 365 420 38,000  Level Washington Center
08:43PM 38.6517 -77.9947 229° Southwest 365 420 38,000  Level Washington Center
08:44PM 38.5872 -78.0883 229° Southwest 365 420 38,000  Level Washington Center
08:45PM 38.5247 -78.1844 230° Southwest 360 414 38,000  Level Washington Center
08:46PM 38.4600 -78.2803 229° Southwest 360 414 38,000  Level Washington Center
08:47PM 38.3975 -78.3733 229° Southwest 360 414 38,000  Level Washington Center
08:48PM 38.3328 -78.4717 230° Southwest 360 414 38,000  Level Washington Center
08:49PM 38.2656 -78.5747 230° Southwest 360 414 38,000  Level Washington Center
08:50PM 38.2050 -78.6594 228° Southwest 360 414 38,000  Level Washington Center
08:51PM 38.1400 -78.7547 229° Southwest 360 414 38,000  Level Washington Center
08:52PM 38.0750 -78.8469 228° Southwest 365 420 38,000  Level Washington Center
08:53PM 38.0078 -78.9389 227° Southwest 360 414 38,000  Level Washington Center
08:54PM 37.9381 -79.0464 231° Southwest 360 414 38,000  Level Washington Center
08:55PM 37.8725 -79.1433 229° Southwest 360 414 38,000  Level Washington Center
08:56PM 37.8114 -79.2375 231° Southwest 360 414 38,000  Level Washington Center
08:57PM 37.7456 -79.3369 230° Southwest 360 414 38,000  Level Washington Center
08:58PM 37.6758 -79.4306 227° Southwest 368 423 38,000  Level Washington Center
08:59PM 37.6147 -79.5167 228° Southwest 373 429 38,000  Level Washington Center
09:00PM 37.5403 -79.6200 228° Southwest 373 429 38,000  Level Washington Center
09:02PM 37.3831 -79.8314 227° Southwest 365 420 38,000  Level Atlanta Center
09:03PM 37.3233 -79.9131 227° Southwest 370 426 38,000  Level Atlanta Center
09:04PM 37.2536 -80.0053 226° Southwest 365 420 38,000  Level Atlanta Center
09:05PM 37.1836 -80.1000 227° Southwest 359 413 38,000  Level Atlanta Center
09:06PM 37.1114 -80.1894 225° Southwest 359 413 38,000  Level Atlanta Center
09:07PM 37.0333 -80.2947 227° Southwest 373 429 38,000  Level Atlanta Center
09:08PM 36.9694 -80.3886 230° Southwest 373 429 38,000  Level Atlanta Center
09:09PM 36.9078 -80.4850 231° Southwest 368 423 38,000  Level Atlanta Center
09:10PM 36.8458 -80.5811 231° Southwest 363 418 38,000  Level Atlanta Center
09:11PM 36.7897 -80.6639 230° Southwest 358 412 38,000  Level Atlanta Center
09:12PM 36.7319 -80.7622 234° Southwest 358 412 38,000  Level Atlanta Center
09:13PM 36.6697 -80.8553 230° Southwest 358 412 38,000  Level Atlanta Center
09:14PM 36.6075 -80.9508 231° Southwest 358 412 38,000  Level Atlanta Center
09:15PM 36.5453 -81.0411 229° Southwest 358 412 38,000  Level Atlanta Center
09:16PM 36.4808 -81.1367 230° Southwest 358 412 38,000  Level Atlanta Center
09:17PM 36.4161 -81.2317 230° Southwest 358 412 38,000  Level Atlanta Center
09:18PM 36.3536 -81.3242 230° Southwest 358 412 38,000  Level Atlanta Center
09:19PM 36.2869 -81.4217 230° Southwest 358 412 38,000  Level Atlanta Center
09:20PM 36.2222 -81.5139 229° Southwest 358 412 38,000  Level Atlanta Center
09:21PM 36.1614 -81.6058 231° Southwest 358 412 38,000  Level Atlanta Center
09:22PM 36.0986 -81.6978 230° Southwest 358 412 38,000  Level Atlanta Center
09:23PM 36.0356 -81.7894 230° Southwest 358 412 38,000  Level Atlanta Center
09:24PM 35.9728 -81.8886 232° Southwest 358 412 38,000  Level Atlanta Center
09:25PM 35.9097 -81.9825 230° Southwest 358 412 38,000 -180 Level Atlanta Center
09:26PM 35.8425 -82.0792 229° Southwest 363 418 37,700 -600 Descending Atlanta Center
09:27PM 35.7917 -82.1725 236° Southwest 352 405 36,900 -780 Descending Atlanta Center
09:28PM 35.7242 -82.2608 227° Southwest 352 405 36,200 -720 Descending Atlanta Center
09:29PM 35.6608 -82.3544 230° Southwest 352 405 35,500 -600 Descending Atlanta Center
09:30PM 35.5972 -82.4400 228° Southwest 352 405 35,000 -960 Descending Atlanta Center
09:31PM 35.5358 -82.5203 227° Southwest 344 396 33,600 -2,220 Descending Atlanta Center
09:32PM 35.4597 -82.6108 224° Southwest 337 388 30,600 -2,040 Descending Atlanta Center
09:33PM 35.4000 -82.6858 226° Southwest 343 395 29,600 -1,200 Descending Atlanta Center
09:34PM 35.3361 -82.7733 228° Southwest 343 395 28,200 -1,560 Descending Atlanta Center
09:35PM 35.2744 -82.8633 230° Southwest 343 395 26,500 -1,560 Descending Atlanta Center
09:36PM 35.2106 -82.9456 226° Southwest 343 395 25,100 -1,680 Descending Atlanta Center
09:37PM 35.1467 -83.0328 228° Southwest 344 396 23,200 -1,980 Descending Atlanta Center
09:38PM 35.0806 -83.1175 226° Southwest 349 402 21,200 -1,800 Descending Atlanta Center
09:39PM 35.0103 -83.2044 225° Southwest 349 402 19,700 -1,680 Descending Atlanta Center
09:40PM 34.9439 -83.2861 225° Southwest 349 402 17,900 -1,620 Descending Atlanta Center
09:41PM 34.8756 -83.3781 228° Southwest 358 412 16,500 -1,260 Descending Atlanta Center
09:42PM 34.8072 -83.4694 228° Southwest 364 419 15,400 -1,200 Descending Atlanta Center
09:43PM 34.7511 -83.5483 229° Southwest 348 400 14,100 -1,440 Descending Atlanta Center
09:44PM 34.6889 -83.6269 226° Southwest 329 379 12,600 -1,440 Descending Atlanta Center
09:45PM 34.6225 -83.7106 226° Southwest 316 364 11,300 -1,200 Descending Atlanta Center
09:46PM 34.5619 -83.7839 225° Southwest 304 350 10,300 -900 Descending Atlanta Center
09:47PM 34.5036 -83.8497 223° Southwest 296 341 9,600 -900 Descending Atlanta Center
09:48PM 34.4453 -83.9128 222° Southwest 296 341 8,500 -780 Descending Atlanta Center
09:49PM 34.3892 -83.9783 224° Southwest 289 333 8,100 -300 Descending Atlanta Center
09:50PM 34.3369 -84.0414 225° Southwest 277 319 8,000 -60 Descending Atlanta Center
09:51PM 34.2742 -84.0892 212° Southwest 272 313 8,000  Level Atlanta Center
09:52PM 34.2222 -84.1392 219° Southwest 260 299 8,000 -420 Level Atlanta Center
09:53PM 34.2178 -84.2247 266° West 238 274 7,200 -1,020 Descending Atlanta Center
09:54PM 34.2156 -84.3178 268° West 273 314 6,000 -1,200 Descending Atlanta Center
09:55PM 34.2194 -84.3981 273° West 257 296 4,900 -960 Descending Atlanta Center
09:56PM 34.2194 -84.4633 270° West 216 249 4,100 -420 Descending Atlanta Center
09:57PM 34.2233 -84.5336 274° West 203 234 4,100  Level Atlanta Center
09:59PM 34.1784 -84.6753 281° West  Level Estimated
10:06PM 34.1167 -84.8333 270° West  Level FlightAware Approximate
10:07PM 34.1231 -84.8487 270° West  Level Estimated
10:08PM 34.1231 -84.8487 270° West  Level Estimated
10:09PM 34.1231 -84.8487 270° West  Level Estimated
10:10PM 34.1231 -84.8487 270° West  Level Estimated
10:11PM 34.1231 -84.8487 270° West  Level Estimated
10:12PM 34.1231 -84.8487 270° West  Level Estimated
10:13PM 34.1231 -84.8487 270° West  Level Estimated
10:14PM 34.1231 -84.8487 270° West  Level Estimated
10:15PM 34.1231 -84.8487 270° West  Level Estimated
10:16PM 34.1231 -84.8487 270° West  Level Estimated
10:17PM 34.1231 -84.8487 270° West  Level Estimated
10:18PM 34.1231 -84.8487 270° West  Level Estimated
10:19PM 34.1231 -84.8487 270° West  Level Estimated